createdAt,value
2018-06-17T00:02:20.375Z,99.90
2018-06-17T00:07:21.223Z,99.90
2018-06-17T00:09:48.823Z,99.90
2018-06-17T00:12:16.408Z,99.90
2018-06-17T00:14:43.948Z,99.90
2018-06-17T00:19:39.039Z,99.90
2018-06-17T00:22:06.839Z,99.90
2018-06-17T00:24:34.410Z,99.90
2018-06-17T00:29:29.439Z,99.90
2018-06-17T00:32:00.967Z,99.90
2018-06-17T00:34:28.536Z,99.90
2018-06-17T00:36:56.055Z,99.90
2018-06-17T00:39:23.646Z,99.90
2018-06-17T00:41:51.225Z,99.90
2018-06-17T00:44:18.850Z,99.90
2018-06-17T00:46:46.462Z,99.90
2018-06-17T00:49:14.023Z,99.90
2018-06-17T00:51:41.591Z,99.90
2018-06-17T00:54:09.139Z,99.90
2018-06-17T00:56:36.715Z,99.90
2018-06-17T00:59:04.442Z,99.90
2018-06-17T01:01:32.035Z,99.90
2018-06-17T01:03:59.689Z,99.90
2018-06-17T01:06:27.215Z,99.90
2018-06-17T01:08:54.753Z,99.90
2018-06-17T01:11:22.310Z,99.90
2018-06-17T01:13:49.857Z,99.90
2018-06-17T01:16:17.407Z,99.90
2018-06-17T01:18:45.746Z,99.90
2018-06-17T01:23:40.858Z,99.90
2018-06-17T01:28:38.266Z,99.90
2018-06-17T01:33:33.603Z,99.90
2018-06-17T01:36:01.326Z,99.90
2018-06-17T01:38:29.223Z,99.90
2018-06-17T01:40:57.271Z,99.90
2018-06-17T01:43:24.813Z,99.90
2018-06-17T01:45:52.372Z,99.90
2018-06-17T01:48:19.918Z,99.90
2018-06-17T01:50:47.466Z,99.90
2018-06-17T01:53:14.990Z,99.90
2018-06-17T01:55:42.490Z,99.90
2018-06-17T01:58:10.175Z,99.90
2018-06-17T02:00:37.671Z,99.90
2018-06-17T02:03:10.798Z,99.90
2018-06-17T02:05:44.199Z,99.90
2018-06-17T02:08:17.391Z,99.90
2018-06-17T02:10:51.726Z,99.90
2018-06-17T02:13:19.257Z,99.90
2018-06-17T02:15:46.834Z,99.90
2018-06-17T02:18:14.346Z,99.90
2018-06-17T02:23:09.653Z,99.90
2018-06-17T02:25:37.295Z,99.90
2018-06-17T02:28:05.033Z,99.90
2018-06-17T02:30:32.545Z,99.90
2018-06-17T02:33:00.362Z,99.90
2018-06-17T02:35:28.019Z,99.90
2018-06-17T02:37:55.526Z,99.90
2018-06-17T02:40:23.034Z,99.90
2018-06-17T02:42:50.572Z,99.90
2018-06-17T02:45:23.774Z,99.90
2018-06-17T02:47:57.105Z,99.90
2018-06-17T02:50:30.266Z,99.90
2018-06-17T02:55:31.068Z,99.90
2018-06-17T02:57:58.541Z,99.90
2018-06-17T03:00:26.066Z,99.90
2018-06-17T03:02:53.608Z,99.90
2018-06-17T03:05:21.326Z,99.90
2018-06-17T03:07:48.868Z,99.90
2018-06-17T03:10:16.410Z,99.90
2018-06-17T03:12:43.934Z,99.90
2018-06-17T03:15:11.417Z,99.90
2018-06-17T03:17:38.918Z,99.90
2018-06-17T03:20:06.445Z,99.90
2018-06-17T03:22:34.027Z,99.90
2018-06-17T03:25:07.246Z,99.90
2018-06-17T03:27:40.499Z,99.90
2018-06-17T03:30:13.598Z,99.90
2018-06-17T03:32:46.829Z,99.90
2018-06-17T03:35:21.105Z,99.90
2018-06-17T03:37:48.633Z,99.90
2018-06-17T03:40:16.118Z,99.90
2018-06-17T03:42:43.626Z,99.90
2018-06-17T03:45:11.158Z,99.90
2018-06-17T03:47:38.673Z,99.90
2018-06-17T03:52:33.732Z,99.90
2018-06-17T03:55:01.407Z,99.90
2018-06-17T03:57:28.950Z,99.90
2018-06-17T03:59:56.482Z,99.90
2018-06-17T04:04:57.215Z,99.90
2018-06-17T04:07:24.790Z,99.90
2018-06-17T04:09:52.598Z,99.90
2018-06-17T04:12:20.138Z,99.90
2018-06-17T04:14:47.630Z,99.90
2018-06-17T04:17:15.322Z,99.90
2018-06-17T04:19:44.545Z,99.90
2018-06-17T04:22:12.379Z,99.90
2018-06-17T04:27:08.010Z,99.90
2018-06-17T04:29:35.583Z,99.90
2018-06-17T04:32:03.098Z,99.90
2018-06-17T04:34:30.834Z,99.90
2018-06-17T04:36:58.342Z,99.90
2018-06-17T04:39:25.902Z,99.90
2018-06-17T04:41:53.691Z,99.90
2018-06-17T04:44:21.407Z,99.90
2018-06-17T04:46:52.953Z,99.90
2018-06-17T04:49:20.491Z,99.90
2018-06-17T04:51:47.977Z,99.90
2018-06-17T04:54:15.510Z,99.90
2018-06-17T04:56:43.020Z,99.90
2018-06-17T04:59:10.691Z,99.90
2018-06-17T05:01:38.254Z,99.90
2018-06-17T05:04:06.051Z,99.90
2018-06-17T05:06:33.592Z,99.90
2018-06-17T05:09:01.081Z,99.90
2018-06-17T05:11:28.601Z,99.90
2018-06-17T05:13:56.157Z,99.90
2018-06-17T05:16:23.636Z,99.90
2018-06-17T05:18:51.201Z,99.90
2018-06-17T05:23:46.207Z,99.90
2018-06-17T05:26:13.737Z,99.90
2018-06-17T05:28:41.256Z,99.90
2018-06-17T05:31:08.841Z,99.90
2018-06-17T05:33:36.414Z,99.90
2018-06-17T05:36:04.110Z,99.90
2018-06-17T05:38:31.617Z,99.90
2018-06-17T05:40:59.112Z,99.90
2018-06-17T05:43:26.640Z,99.90
2018-06-17T05:45:54.322Z,99.90
2018-06-17T05:48:21.826Z,99.90
2018-06-17T05:50:49.361Z,99.90
2018-06-17T05:53:16.901Z,99.90
2018-06-17T05:55:44.520Z,99.90
2018-06-17T05:58:12.007Z,99.90
2018-06-17T06:00:39.526Z,99.90
2018-06-17T06:03:07.076Z,99.90
2018-06-17T06:05:34.594Z,99.90
2018-06-17T06:08:02.148Z,99.90
2018-06-17T06:10:29.641Z,99.90
2018-06-17T06:12:57.170Z,99.90
2018-06-17T06:15:24.713Z,99.90
2018-06-17T06:17:52.306Z,99.90
2018-06-17T06:20:19.797Z,99.90
2018-06-17T06:22:47.330Z,99.90
2018-06-17T06:25:14.872Z,99.90
2018-06-17T06:27:42.446Z,99.90
2018-06-17T06:30:09.953Z,99.90
2018-06-17T06:32:37.452Z,99.90
2018-06-17T06:35:04.954Z,99.90
2018-06-17T06:37:32.511Z,99.90
2018-06-17T06:40:00.027Z,99.90
2018-06-17T06:42:27.623Z,99.90
2018-06-17T06:44:55.134Z,99.90
2018-06-17T06:47:22.741Z,99.90
2018-06-17T06:49:50.263Z,99.90
2018-06-17T06:52:17.887Z,99.90
2018-06-17T06:54:45.423Z,99.90
2018-06-17T06:57:12.941Z,99.90
2018-06-17T06:59:40.490Z,99.90
2018-06-17T07:02:19.829Z,99.90
2018-06-17T07:04:58.738Z,99.90
2018-06-17T07:08:37.691Z,99.40
2018-06-17T07:13:33.014Z,98.80
2018-06-17T07:16:12.283Z,99.50
2018-06-17T07:18:41.021Z,98.50
2018-06-17T07:21:09.100Z,97.70
2018-06-17T07:23:36.650Z,96.80
2018-06-17T07:26:26.321Z,97.90
2018-06-17T07:34:53.505Z,94.50
2018-06-17T07:37:21.026Z,93.50
2018-06-17T07:41:04.556Z,94.50
2018-06-17T07:43:32.085Z,94.60
2018-06-17T07:45:59.639Z,95.70
2018-06-17T07:49:54.164Z,95.60
2018-06-17T07:52:34.604Z,96.20
2018-06-17T07:55:02.142Z,95.80
2018-06-17T07:57:30.962Z,95.80
2018-06-17T07:59:58.501Z,95.10
2018-06-17T08:02:26.079Z,94.40
2018-06-17T08:04:53.726Z,95.00
2018-06-17T08:07:21.277Z,95.40
2018-06-17T08:09:48.969Z,95.30
2018-06-17T08:12:16.631Z,95.90
2018-06-17T08:14:44.177Z,95.60
2018-06-17T08:17:11.819Z,97.60
2018-06-17T08:19:39.775Z,97.30
2018-06-17T08:22:07.392Z,97.70
2018-06-17T08:27:02.895Z,97.40
2018-06-17T08:29:30.763Z,96.70
2018-06-17T08:31:58.310Z,96.10
2018-06-17T08:34:26.040Z,96.30
2018-06-17T08:36:53.909Z,95.40
2018-06-17T08:39:22.497Z,94.80
2018-06-17T08:41:50.051Z,96.20
2018-06-17T08:44:18.100Z,95.70
2018-06-17T08:46:46.522Z,95.50
2018-06-17T08:49:14.530Z,93.60
2018-06-17T08:51:42.061Z,94.40
2018-06-17T08:54:09.683Z,94.50
2018-06-17T08:56:37.443Z,93.70
2018-06-17T08:59:05.303Z,93.30
2018-06-17T09:01:33.044Z,94.00
2018-06-17T09:04:00.731Z,94.00
2018-06-17T09:06:28.305Z,95.50
2018-06-17T09:08:56.371Z,94.80
2018-06-17T09:11:24.324Z,94.10
2018-06-17T09:13:53.038Z,94.20
2018-06-17T09:16:20.783Z,93.80
2018-06-17T09:18:48.818Z,92.20
2018-06-17T09:21:16.358Z,92.70
2018-06-17T09:23:43.950Z,92.90
2018-06-17T09:26:11.775Z,92.10
2018-06-17T09:28:39.338Z,92.70
2018-06-17T09:31:06.898Z,79.10
2018-06-17T09:33:34.493Z,73.40
2018-06-17T09:36:02.107Z,76.90
2018-06-17T09:38:29.833Z,80.50
2018-06-17T09:40:57.450Z,74.70
2018-06-17T09:43:25.005Z,74.30
2018-06-17T09:45:52.520Z,65.90
2018-06-17T09:48:20.089Z,65.30
2018-06-17T09:50:47.629Z,63.10
2018-06-17T09:53:15.161Z,62.40
2018-06-17T09:55:42.703Z,58.60
2018-06-17T09:58:10.219Z,60.70
2018-06-17T10:00:37.710Z,58.60
2018-06-17T10:05:32.795Z,58.50
2018-06-17T10:08:00.586Z,56.90
2018-06-17T10:10:54.142Z,54.50
2018-06-17T10:13:22.838Z,56.70
2018-06-17T10:15:50.943Z,58.10
2018-06-17T10:18:19.297Z,60.40
2018-06-17T10:20:46.956Z,57.20
2018-06-17T10:23:14.598Z,57.60
2018-06-17T10:25:42.280Z,58.60
2018-06-17T10:28:10.566Z,56.60
2018-06-17T10:30:39.143Z,58.50
2018-06-17T10:33:07.847Z,64.40
2018-06-17T10:35:35.377Z,56.30
2018-06-17T10:38:02.933Z,59.10
2018-06-17T10:40:30.443Z,61.80
2018-06-17T10:42:58.005Z,59.10
2018-06-17T10:45:25.681Z,55.40
2018-06-17T10:47:53.210Z,56.50
2018-06-17T10:50:20.851Z,55.90
2018-06-17T10:52:48.383Z,61.40
2018-06-17T10:55:16.077Z,60.10
2018-06-17T10:57:44.463Z,62.40
2018-06-17T11:00:12.010Z,50.50
2018-06-17T11:02:39.594Z,47.90
2018-06-17T11:05:07.619Z,50.10
2018-06-17T11:07:35.723Z,50.70
2018-06-17T11:10:03.862Z,52.50
2018-06-17T11:12:31.742Z,52.40
2018-06-17T11:14:59.301Z,52.00
2018-06-17T11:17:26.825Z,52.20
2018-06-17T11:19:54.354Z,50.90
2018-06-17T11:22:22.209Z,51.80
2018-06-17T11:24:50.145Z,51.50
2018-06-17T11:27:17.796Z,50.30
2018-06-17T11:29:45.383Z,45.70
2018-06-17T11:32:13.063Z,46.70
2018-06-17T11:34:40.724Z,46.70
2018-06-17T11:37:08.282Z,49.20
2018-06-17T11:39:35.954Z,52.30
2018-06-17T11:42:03.622Z,50.80
2018-06-17T11:44:31.310Z,49.20
2018-06-17T11:46:58.839Z,47.40
2018-06-17T11:49:26.494Z,43.70
2018-06-17T11:51:54.067Z,47.40
2018-06-17T11:54:22.446Z,47.20
2018-06-17T11:56:50.006Z,47.10
2018-06-17T11:59:17.508Z,49.20
2018-06-17T12:01:45.223Z,51.40
2018-06-17T12:04:12.726Z,52.00
2018-06-17T12:06:40.225Z,51.70
2018-06-17T12:09:08.681Z,53.30
2018-06-17T12:11:36.478Z,56.60
2018-06-17T12:14:04.178Z,56.10
2018-06-17T12:16:31.766Z,56.50
2018-06-17T12:18:59.360Z,56.80
2018-06-17T12:21:26.953Z,55.80
2018-06-17T12:23:55.577Z,54.80
2018-06-17T12:26:23.198Z,50.20
2018-06-17T12:28:50.710Z,50.20
2018-06-17T12:31:18.413Z,49.90
2018-06-17T12:33:45.964Z,52.50
2018-06-17T12:36:13.498Z,54.40
2018-06-17T12:39:00.479Z,60.00
2018-06-17T12:41:39.394Z,55.50
2018-06-17T12:44:10.909Z,57.50
2018-06-17T12:49:05.954Z,52.80
2018-06-17T12:51:33.516Z,51.10
2018-06-17T12:54:01.103Z,51.80
2018-06-17T12:56:28.618Z,47.50
2018-06-17T12:58:56.174Z,46.40
2018-06-17T13:01:23.730Z,47.20
2018-06-17T13:03:51.558Z,48.60
2018-06-17T13:06:19.239Z,46.50
2018-06-17T13:08:51.689Z,46.40
2018-06-17T13:11:19.348Z,48.00
2018-06-17T13:13:46.906Z,48.90
2018-06-17T13:16:14.487Z,50.70
2018-06-17T13:18:42.013Z,50.90
2018-06-17T13:21:09.643Z,50.50
2018-06-17T13:23:37.205Z,50.20
2018-06-17T13:26:04.801Z,49.00
2018-06-17T13:28:32.361Z,49.30
2018-06-17T13:30:59.922Z,51.70
2018-06-17T13:33:27.467Z,52.50
2018-06-17T13:35:54.972Z,53.90
2018-06-17T13:38:22.853Z,54.50
2018-06-17T13:40:50.381Z,53.80
2018-06-17T13:43:17.920Z,54.70
2018-06-17T13:45:45.474Z,55.60
2018-06-17T13:48:13.125Z,55.60
2018-06-17T13:50:40.645Z,56.30
2018-06-17T13:53:08.163Z,55.00
2018-06-17T13:55:35.741Z,52.90
2018-06-17T13:58:03.277Z,54.60
2018-06-17T14:02:58.270Z,53.20
2018-06-17T14:05:25.834Z,55.90
2018-06-17T14:07:53.453Z,53.80
2018-06-17T14:10:21.024Z,52.80
2018-06-17T14:12:48.566Z,53.30
2018-06-17T14:15:16.153Z,52.90
2018-06-17T14:17:43.786Z,54.40
2018-06-17T14:20:11.305Z,53.90
2018-06-17T14:22:38.836Z,52.50
2018-06-17T14:25:06.439Z,53.90
2018-06-17T14:27:33.976Z,52.00
2018-06-17T14:30:01.854Z,52.10
2018-06-17T14:32:29.487Z,52.90
2018-06-17T14:34:57.048Z,50.50
2018-06-17T14:37:24.605Z,52.50
2018-06-17T14:39:52.194Z,53.20
2018-06-17T14:42:25.383Z,53.40
2018-06-17T14:45:57.614Z,55.60
2018-06-17T14:48:30.890Z,53.40
2018-06-17T14:53:31.838Z,54.40
2018-06-17T14:55:59.353Z,54.80
2018-06-17T14:58:26.869Z,59.80
2018-06-17T15:00:54.397Z,54.50
2018-06-17T15:03:21.928Z,52.70
2018-06-17T15:05:49.744Z,54.00
2018-06-17T15:08:17.334Z,52.20
2018-06-17T15:10:44.882Z,53.80
2018-06-17T15:13:12.351Z,53.50
2018-06-17T15:15:39.949Z,53.60
2018-06-17T15:18:07.725Z,55.20
2018-06-17T15:20:35.249Z,56.40
2018-06-17T15:23:03.282Z,51.90
2018-06-17T15:25:30.901Z,51.10
2018-06-17T15:27:58.558Z,51.60
2018-06-17T15:30:26.066Z,49.90
2018-06-17T15:32:59.420Z,51.20
2018-06-17T15:35:33.123Z,52.20
2018-06-17T15:38:10.220Z,53.20
2018-06-17T15:40:43.350Z,54.00
2018-06-17T15:43:10.841Z,53.80
2018-06-17T15:45:38.323Z,57.00
2018-06-17T15:48:05.913Z,57.80
2018-06-17T15:50:33.462Z,57.60
2018-06-17T15:53:01.041Z,59.00
2018-06-17T15:55:28.549Z,57.70
2018-06-17T15:57:56.083Z,58.30
2018-06-17T16:00:23.611Z,58.80
2018-06-17T16:05:18.690Z,57.00
2018-06-17T16:07:46.233Z,57.20
2018-06-17T16:10:13.731Z,58.70
2018-06-17T16:12:46.890Z,61.10
2018-06-17T16:15:20.165Z,59.60
2018-06-17T16:17:53.381Z,60.20
2018-06-17T16:20:26.485Z,62.00
2018-06-17T16:22:54.054Z,62.90
2018-06-17T16:25:21.578Z,63.00
2018-06-17T16:27:49.094Z,63.20
2018-06-17T16:30:16.625Z,63.20
2018-06-17T16:32:44.358Z,64.70
2018-06-17T16:35:11.893Z,65.30
2018-06-17T16:37:39.537Z,65.20
2018-06-17T16:40:07.040Z,64.90
2018-06-17T16:42:34.576Z,66.80
2018-06-17T16:45:02.091Z,65.50
2018-06-17T16:47:30.267Z,66.30
2018-06-17T16:49:57.836Z,66.50
2018-06-17T16:52:31.172Z,68.40
2018-06-17T16:55:02.340Z,69.20
2018-06-17T16:57:35.696Z,66.50
2018-06-17T17:00:08.662Z,65.50
2018-06-17T17:02:36.262Z,65.90
2018-06-17T17:05:03.786Z,66.60
2018-06-17T17:07:31.289Z,66.10
2018-06-17T17:09:59.021Z,68.40
2018-06-17T17:12:26.637Z,69.30
2018-06-17T17:14:54.754Z,71.10
2018-06-17T17:17:22.325Z,72.90
2018-06-17T17:19:49.945Z,73.70
2018-06-17T17:22:17.561Z,73.10
2018-06-17T17:24:45.142Z,75.50
2018-06-17T17:27:12.699Z,75.60
2018-06-17T17:29:40.432Z,75.10
2018-06-17T17:34:47.047Z,77.50
2018-06-17T17:37:20.360Z,77.10
2018-06-17T17:39:53.658Z,78.50
2018-06-17T17:42:21.135Z,75.50
2018-06-17T17:45:03.685Z,76.70
2018-06-17T17:47:32.269Z,74.90
2018-06-17T17:49:59.777Z,73.70
2018-06-17T17:52:27.401Z,72.90
2018-06-17T17:54:55.014Z,74.70
2018-06-17T17:57:22.932Z,76.40
2018-06-17T18:02:20.365Z,77.20
2018-06-17T18:04:47.916Z,76.00
2018-06-17T18:07:15.477Z,76.50
2018-06-17T18:09:43.142Z,76.70
2018-06-17T18:12:10.969Z,76.40
2018-06-17T18:14:39.902Z,77.10
2018-06-17T18:17:11.384Z,78.00
2018-06-17T18:19:39.041Z,77.30
2018-06-17T18:22:06.611Z,77.30
2018-06-17T18:24:34.220Z,78.60
2018-06-17T18:27:07.396Z,79.20
2018-06-17T18:32:13.847Z,81.70
2018-06-17T18:34:47.069Z,80.50
2018-06-17T18:37:14.762Z,80.90
2018-06-17T18:39:42.319Z,81.40
2018-06-17T18:42:13.891Z,81.60
2018-06-17T18:44:41.409Z,83.30
2018-06-17T18:47:08.924Z,83.30
2018-06-17T18:49:36.486Z,84.10
2018-06-17T18:52:04.043Z,84.70
2018-06-17T18:54:31.549Z,86.10
2018-06-17T18:56:59.102Z,86.80
2018-06-17T18:59:26.826Z,87.90
2018-06-17T19:01:54.397Z,89.10
2018-06-17T19:04:21.993Z,89.60
2018-06-17T19:06:49.879Z,90.20
2018-06-17T19:09:24.466Z,90.40
2018-06-17T19:11:57.960Z,90.60
2018-06-17T19:14:31.087Z,90.70
2018-06-17T19:17:04.213Z,90.80
2018-06-17T19:19:32.043Z,91.10
2018-06-17T19:21:59.721Z,91.40
2018-06-17T19:24:27.216Z,91.90
2018-06-17T19:26:54.882Z,92.30
2018-06-17T19:29:22.552Z,92.50
2018-06-17T19:31:50.073Z,92.60
2018-06-17T19:34:17.625Z,92.60
2018-06-17T19:36:45.190Z,92.80
2018-06-17T19:39:12.733Z,92.80
2018-06-17T19:41:40.726Z,92.80
2018-06-17T19:44:08.282Z,93.20
2018-06-17T19:46:35.817Z,93.80
2018-06-17T19:49:03.421Z,94.30
2018-06-17T19:51:36.700Z,94.30
2018-06-17T19:54:10.399Z,94.20
2018-06-17T19:56:43.557Z,94.30
2018-06-17T19:59:16.745Z,94.20
2018-06-17T20:01:46.257Z,94.50
2018-06-17T20:04:13.777Z,94.50
2018-06-17T20:06:41.301Z,94.70
2018-06-17T20:09:10.288Z,95.00
2018-06-17T20:11:38.074Z,95.10
2018-06-17T20:14:09.468Z,95.40
2018-06-17T20:16:38.954Z,95.80
2018-06-17T20:19:06.579Z,96.00
2018-06-17T20:21:34.271Z,96.20
2018-06-17T20:24:01.832Z,96.50
2018-06-17T20:26:29.349Z,97.00
2018-06-17T20:28:56.877Z,97.20
2018-06-17T20:31:24.393Z,97.90
2018-06-17T20:33:57.598Z,98.10
2018-06-17T20:36:30.691Z,98.60
2018-06-17T20:39:03.986Z,98.60
2018-06-17T20:41:37.102Z,98.90
2018-06-17T20:44:04.829Z,99.00
2018-06-17T20:46:32.371Z,99.20
2018-06-17T20:48:59.877Z,99.70
2018-06-17T20:51:27.390Z,99.50
2018-06-17T20:53:54.962Z,99.60
2018-06-17T20:56:22.502Z,99.90
2018-06-17T20:58:50.143Z,99.90
2018-06-17T21:01:17.686Z,99.90
2018-06-17T21:03:45.198Z,99.90
2018-06-17T21:06:12.804Z,99.90
2018-06-17T21:08:40.386Z,99.90
2018-06-17T21:11:07.898Z,99.90
2018-06-17T21:13:35.533Z,99.90
2018-06-17T21:16:03.062Z,99.90
2018-06-17T21:18:36.176Z,99.90
2018-06-17T21:21:09.352Z,99.90
2018-06-17T21:23:42.682Z,99.90
2018-06-17T21:26:15.994Z,99.90
2018-06-17T21:28:43.795Z,99.90
2018-06-17T21:31:11.335Z,99.90
2018-06-17T21:33:39.871Z,99.90
2018-06-17T21:36:07.484Z,99.90
2018-06-17T21:38:35.076Z,99.90
2018-06-17T21:41:02.791Z,99.90
2018-06-17T21:43:31.681Z,99.90
2018-06-17T21:46:02.569Z,99.90
2018-06-17T21:48:31.108Z,99.90
2018-06-17T21:50:58.693Z,99.90
2018-06-17T21:53:26.526Z,99.90
2018-06-17T21:55:54.094Z,99.90
2018-06-17T21:58:27.349Z,99.90
2018-06-17T22:03:22.780Z,99.90
2018-06-17T22:05:51.138Z,99.90
2018-06-17T22:10:58.983Z,99.90
2018-06-17T22:13:31.219Z,99.90
2018-06-17T22:16:04.506Z,99.90
2018-06-17T22:18:32.788Z,99.90
2018-06-17T22:21:00.297Z,99.90
2018-06-17T22:23:27.854Z,99.90
2018-06-17T22:25:55.364Z,99.90
2018-06-17T22:28:22.913Z,99.90
2018-06-17T22:30:50.451Z,99.90
2018-06-17T22:33:17.946Z,99.90
2018-06-17T22:35:45.688Z,99.90
2018-06-17T22:38:13.857Z,99.90
2018-06-17T22:40:41.441Z,99.90
2018-06-17T22:43:08.969Z,99.90
2018-06-17T22:45:37.527Z,99.90
2018-06-17T22:48:07.318Z,99.90
2018-06-17T22:50:34.839Z,99.90
2018-06-17T22:53:14.466Z,99.90
2018-06-17T22:55:42.042Z,99.90
2018-06-17T22:58:16.225Z,99.90
2018-06-17T23:00:49.503Z,99.90
2018-06-17T23:03:22.725Z,99.90
2018-06-17T23:05:56.031Z,99.90
2018-06-17T23:08:30.340Z,99.90
2018-06-17T23:10:57.852Z,99.90
2018-06-17T23:13:25.569Z,99.90
2018-06-17T23:15:53.111Z,99.90
2018-06-17T23:18:20.848Z,99.90
2018-06-17T23:20:49.052Z,99.90
2018-06-17T23:23:16.717Z,99.90
2018-06-17T23:25:44.832Z,99.90
2018-06-17T23:28:12.655Z,99.90
2018-06-17T23:30:40.198Z,99.90
2018-06-17T23:33:07.831Z,99.90
2018-06-17T23:35:35.477Z,99.90
2018-06-17T23:38:02.965Z,99.90
2018-06-17T23:40:30.499Z,99.90
2018-06-17T23:42:58.258Z,99.90
2018-06-17T23:45:25.819Z,99.90
2018-06-17T23:47:59.855Z,99.90
2018-06-17T23:50:33.941Z,99.90
2018-06-17T23:53:07.357Z,99.90
2018-06-17T23:55:40.698Z,99.90
2018-06-17T23:58:08.199Z,99.90
